Hlavní strana
METAR-TAF:

METAR-TAF

Letiště :

Mikkeli, Finsko

zeměpisná šířka: 61-44N, zeměpisná délka: 027-18E, výška: 138 m

Aktuální stav počasí

Zpráva byla vytvořena před 29 minutami, v 00:50 UTC
Západní vítr 3 kt
Teplota -2°C
Vlhkost vzduchu 100%
Tlak 1030 hPa
Viditelnost 10 km a více
Žádná oblačnost pod 1500 m, nevyskytují se cumulonimby.

METAR: EFMI 200050Z AUTO 26003KT CAVOK M02/M02 Q1030

Čas: 04:19 (01:19 UTC)


TAF: chybějící

Stav a předpovědi počasí z více než 4 000 letišť (zprávy METAR a TAF).

Červené a žluté tečky na mapě představují dostupné meteorologické stanice.

Když kurzor umístíte na tečku, zobrazí se název stanice.

Pak kliknutím zobrazíte stav a předpověď počasí.

Chcete-li změnit mapu, kliknutím na zelené tlačítko se znaménkem +mapu přiblížíte, kliknutím na zelené tlačítko se znaménkem – mapu oddálíte a kliknutím na zelené šipky přejdete na sousední mapy.


METAR-TAF: